Flight Track Log - Related Links

Times and Time Zones

All times are in EST time to prevent confusion due to time zone crossing. See the N40F flight status page for this flight to view local times or setup timezone preferences in your user account.

Time Position Orientation Groundspeed Altitude Reporting Facility
EST Latitude Longitude Course Direction KTS MPH feet Rate Location/Type
Tue 05:07:15 PM 41.9167 -88.2833 173° South 98 113 2,000  Level Chicago TRACON
Tue 05:08:15 PM 41.9000 -88.3000 217° Southwest 135 155 2,900 492 Climbing Chicago TRACON
Tue 05:09:17 PM 41.8606 -88.2919 171° South 160 184 3,000 290 Climbing Chicago Center
Tue 05:10:19 PM 41.8028 -88.2778 170° South 169 194 3,500 677 Climbing Chicago Center
Tue 05:11:21 PM 41.7606 -88.2664 169° South 165 190 4,400 726 Climbing Chicago Center
Tue 05:12:00 PM 41.6800 -88.2161 173° South  Level FlightAware Approximate
Tue 05:12:23 PM 41.7189 -88.2550 168° South 158 182 5,000  Level Chicago Center
Tue 05:13:25 PM 41.6733 -88.2436 169° South 161 185 5,000  Level Chicago Center
Tue 05:14:27 PM 41.6222 -88.2331 171° South 176 203 5,000 97 Level Chicago Center
Tue 05:15:29 PM 41.5625 -88.2192 170° South 183 211 5,200 339 Climbing Chicago Center
Tue 05:16:31 PM 41.5156 -88.2069 169° South 176 203 5,700 435 Climbing Chicago Center
Tue 05:17:33 PM 41.4694 -88.1969 171° South 173 199 6,100 97 Climbing Chicago Center
Tue 05:18:35 PM 41.4197 -88.1856 170° South 180 207 5,900 -96 Descending Chicago Center
Tue 05:19:38 PM 41.3678 -88.2042 195° South 167 192 5,900  Level Chicago Center
Tue 05:20:40 PM 41.3294 -88.2378 213° Southwest 163 188 5,900  Level Chicago Center
Tue 05:21:42 PM 41.2931 -88.2717 215° Southwest 162 186 5,900  Level Chicago Center
Tue 05:22:44 PM 41.2583 -88.3097 219° Southwest 162 186 5,900  Level Chicago Center
Tue 05:23:46 PM 41.2208 -88.3444 215° Southwest 163 188 5,900  Level Chicago Center
Tue 05:24:48 PM 41.1783 -88.3881 218° Southwest 163 188 5,900  Level Chicago Center
Tue 05:25:50 PM 41.1428 -88.4233 217° Southwest 161 185 5,900  Level Chicago Center
Tue 05:26:52 PM 41.1053 -88.4583 215° Southwest 163 188 5,900 97 Level Chicago Center
Tue 05:27:54 PM 41.0700 -88.4956 219° Southwest 163 188 6,100 96 Climbing Chicago Center
Tue 05:28:57 PM 41.0336 -88.5308 216° Southwest 163 188 6,100  Level Chicago Center
Tue 05:29:59 PM 40.9972 -88.5669 217° Southwest 163 188 6,100  Level Chicago Center
Tue 05:31:01 PM 40.9533 -88.6103 217° Southwest 165 190 6,100  Level Chicago Center
Tue 05:32:03 PM 40.9150 -88.6447 214° Southwest 166 191 6,100  Level Chicago Center
Tue 05:33:05 PM 40.8786 -88.6831 219° Southwest 167 192 6,100 48 Level Chicago Center
Tue 05:34:07 PM 40.8414 -88.7194 216° Southwest 166 191 6,200  Climbing Chicago Center
Tue 05:35:09 PM 40.8028 -88.7542 214° Southwest 169 194 6,100 -48 Descending Chicago Center
Tue 05:36:11 PM 40.7603 -88.8008 220° Southwest 166 191 6,100  Level Chicago Center
Tue 05:37:13 PM 40.7211 -88.8356 214° Southwest 169 194 6,100  Level Chicago Center
Tue 05:38:16 PM 40.6861 -88.8703 217° Southwest 169 194 6,100  Level Chicago Center
Tue 05:39:18 PM 40.6492 -88.9058 216° Southwest 166 191 6,100 48 Level Chicago Center
Tue 05:40:20 PM 40.6117 -88.9408 215° Southwest 165 190 6,200  Climbing Chicago Center
Tue 05:41:22 PM 40.5672 -88.9836 216° Southwest 165 190 6,100 -48 Descending Chicago Center
Tue 05:42:24 PM 40.5306 -89.0219 218° Southwest 167 192 6,100  Level Chicago Center
Tue 05:43:26 PM 40.4931 -89.0569 215° Southwest 166 191 6,100  Level Chicago Center
Tue 05:44:28 PM 40.4558 -89.0922 216° Southwest 165 190 6,100  Level Chicago Center
Tue 05:45:30 PM 40.4192 -89.1289 217° Southwest 165 190 6,100  Level Chicago Center
Tue 05:46:32 PM 40.3806 -89.1631 214° Southwest 166 191 6,100  Level Chicago Center
Tue 05:47:35 PM 40.3364 -89.2058 216° Southwest 165 190 6,100  Level Chicago Center
Tue 05:48:37 PM 40.2989 -89.2433 217° Southwest 166 191 6,100  Level Chicago Center
Tue 05:49:39 PM 40.2614 -89.2769 214° Southwest 165 190 6,100 -97 Level Chicago Center
Tue 05:50:41 PM 40.2256 -89.3131 218° Southwest 163 188 5,900 -242 Descending Chicago Center
Tue 05:51:43 PM 40.1875 -89.3511 217° Southwest 169 194 5,600 -290 Descending Chicago Center
Tue 05:52:45 PM 40.1481 -89.3881 216° Southwest 172 198 5,300 -273 Descending Chicago Center
Tue 05:53:55 PM 40.1017 -89.4333 217° Southwest 171 197 5,000 -318 Descending Kansas City Center
Tue 05:54:57 PM 40.0639 -89.4708 217° Southwest 170 196 4,600 -435 Descending Kansas City Center
Tue 05:55:59 PM 40.0172 -89.4964 203° Southwest 184 212 4,100 -532 Descending Kansas City Center
Tue 05:57:01 PM 39.9669 -89.5333 209° Southwest 178 205 3,500 -484 Descending Kansas City Center
Tue 05:58:03 PM 39.9361 -89.5689 221° Southwest 164 189 3,100 -581 Descending Kansas City Center
Tue 05:59:05 PM 39.9139 -89.5950 222° Southwest 137 158 2,300 -629 Descending Kansas City Center
Tue 06:00:07 PM 39.8939 -89.6217 226° Southwest 117 135 1,800 -532 Descending Kansas City Center
Tue 06:01:09 PM 39.8725 -89.6464 222° Southwest 109 125 1,200 -339 Descending Kansas City Center
Tue 06:02:11 PM 39.8511 -89.6719 223° Southwest 108 124 1,100 -97 Descending Kansas City Center

Login

Don't have an account? Register now (free) for customized features, flight alerts, and more!